MSC Amsterdam — 3EUJ — position and weather

sailwx.info

Track history (hours):
 
Tides and Currents Weather Stations Pressure Air Temp Water Temp Dewpoint Dewpoint Depression Visibility Wind Speed Wind Dir Waves Ship Positions

MSC Amsterdam

Last reported at 2017-Nov-02 06:23 UTC. Time now 2017-Nov-20 12:12 UTC.
Position N 37°39' E 016°15'.
Warning: this ship's position is 18 days out of date.

Length 399 m; draft 12.6 m.

Type: Cargo ship. MMSI: 373598000.

Date/timePositionNaut miles runAvg speedWind from/ knotsBaromVisibWave heightAir tempDewpointWater temp
2017-Nov-02 06:23N 37°39' E 016°15'921.7
2017-Nov-02 06:00N 37°43' E 016°05'1021.3
2017-Nov-02 05:30N 37°47' E 015°53'1121.3
2017-Nov-02 05:00N 37°52' E 015°41'1219.7
2017-Nov-02 04:25N 38°02' E 015°34'718.3
2017-Nov-02 04:00N 38°10' E 015°34'914.9
2017-Nov-02 03:24N 38°17' E 015°41'718.0
2017-Nov-02 03:00N 38°23' E 015°46'713.1
2017-Nov-02 02:30N 38°27' E 015°52'1 0.0
2017-Oct-31 12:17N 38°27' E 015°54'0 0.0
2017-Oct-31 12:00N 38°27' E 015°54'0 0.0
2017-Oct-31 11:30N 38°27' E 015°54'1 1.0
2017-Oct-31 10:56N 38°27' E 015°54'3 3.1
2017-Oct-31 10:02N 38°28' E 015°51'2 3.0
2017-Oct-31 09:12N 38°29' E 015°48'3 9.3
2017-Oct-31 08:50N 38°30' E 015°44'615.7
2017-Oct-31 08:28N 38°31' E 015°37'716.0
2017-Oct-31 08:00N 38°30' E 015°27'2 4.5
2017-Oct-31 07:28N 38°30' E 015°24'0 0.4
2017-Oct-31 07:00N 38°30' E 015°24'0 0.2
2017-Oct-31 06:29N 38°30' E 015°24'0 0.3
2017-Oct-31 05:59N 38°30' E 015°24'0 0.4
2017-Oct-31 05:26N 38°30' E 015°24'0 0.2
2017-Oct-31 05:00N 38°30' E 015°24'0 0.4
2017-Oct-31 04:29N 38°30' E 015°24'0 0.7
2017-Oct-31 03:58N 38°30' E 015°25'0 0.6
2017-Oct-31 03:29N 38°30' E 015°25'1 1.1
2017-Oct-31 03:00N 38°29' E 015°26'1 1.3
2017-Oct-31 02:30N 38°29' E 015°27'1 0.1
2017-Oct-30 20:05N 38°30' E 015°27'0 0.3
2017-Oct-30 19:59N 38°30' E 015°27'0 0.2
2017-Oct-30 19:29N 38°30' E 015°27'0 0.4
2017-Oct-30 19:00N 38°30' E 015°27'0 0.5
2017-Oct-30 18:28N 38°30' E 015°27'0 0.6
2017-Oct-30 18:00N 38°31' E 015°27'0 0.6
2017-Oct-30 17:30N 38°31' E 015°27'0 0.8
2017-Oct-30 17:00N 38°31' E 015°27'0 0.7
2017-Oct-30 16:30N 38°32' E 015°27'0 0.8
2017-Oct-30 16:00N 38°32' E 015°26'0 0.8
2017-Oct-30 15:30N 38°32' E 015°27'0 0.9
2017-Oct-30 14:59N 38°33' E 015°27'0 1.0
2017-Oct-30 14:30N 38°33' E 015°26'1 1.1
2017-Oct-30 13:24N 38°35' E 015°26'1 2.2
2017-Oct-30 12:56N 38°36' E 015°26'3 6.0
2017-Oct-30 12:30N 38°38' E 015°25'5 9.5
2017-Oct-30 12:00N 38°43' E 015°23'5 9.4
2017-Oct-30 11:30N 38°47' E 015°21'5 9.0
2017-Oct-30 11:00N 38°51' E 015°19'2811.7
2017-Oct-30 08:34N 39°09' E 014°51'421.4
2017-Oct-30 08:21N 39°12' E 014°46'721.5
2017-Oct-30 08:00N 39°17' E 014°39'31421.2
2017-Oct-29 17:11N 42°54' E 009°38'421.0
2017-Oct-29 17:00N 42°58' E 009°37'1220.3
2017-Oct-29 16:24N 43°10' E 009°37'820.7
2017-Oct-29 16:00N 43°18' E 009°40'1020.6
2017-Oct-29 15:30N 43°28' E 009°42'1020.5
2017-Oct-29 15:00N 43°38' E 009°45'1020.1
2017-Oct-29 14:30N 43°48' E 009°48'917.5
2017-Oct-29 14:01N 43°57' E 009°51'612.5
2017-Oct-29 13:31N 44°03' E 009°52'4 7.0
2017-Oct-29 13:00N 44°06' E 009°51'0 0.0
2017-Oct-29 12:30N 44°06' E 009°51'0 0.0
2017-Oct-29 12:00N 44°06' E 009°51'0 0.0
2017-Oct-29 11:24N 44°06' E 009°51'0 0.0
2017-Oct-29 11:00N 44°06' E 009°51'0 0.0
2017-Oct-29 10:24N 44°06' E 009°51'0 0.0
2017-Oct-29 10:00N 44°06' E 009°51'0 0.0
2017-Oct-29 09:15N 44°06' E 009°51'0 0.0
2017-Oct-29 08:57N 44°06' E 009°51'0 0.0
2017-Oct-29 08:18N 44°06' E 009°51'0 0.0
2017-Oct-29 08:00N 44°06' E 009°51'0 0.0
2017-Oct-29 07:24N 44°06' E 009°51'0 0.0
2017-Oct-29 06:57N 44°06' E 009°51'0 0.0
2017-Oct-29 06:21N 44°06' E 009°51'0 0.0
2017-Oct-29 05:51N 44°06' E 009°51'0 0.0
2017-Oct-29 05:06N 44°06' E 009°51'0 0.1
2017-Oct-29 05:00N 44°06' E 009°51'0 0.0
2017-Oct-29 04:27N 44°06' E 009°51'0 0.0
2017-Oct-29 03:33N 44°06' E 009°51'0 0.0
2017-Oct-28 19:00N 44°06' E 009°51'0 0.0
2017-Oct-28 18:18N 44°06' E 009°51'0 0.0
2017-Oct-28 17:57N 44°06' E 009°51'0 0.0
2017-Oct-28 16:27N 44°06' E 009°51'0 0.0
2017-Oct-28 16:00N 44°06' E 009°51'0 0.0
2017-Oct-28 15:21N 44°06' E 009°51'0 0.0
2017-Oct-28 14:57N 44°06' E 009°51'0 0.0
2017-Oct-28 14:30N 44°06' E 009°51'0 0.0
2017-Oct-28 14:00N 44°06' E 009°51'0 0.0
2017-Oct-28 13:30N 44°06' E 009°51'0 0.0
2017-Oct-28 13:00N 44°06' E 009°51'0 0.0
2017-Oct-28 12:27N 44°06' E 009°51'0 0.0
2017-Oct-28 11:54N 44°06' E 009°51'0 0.0
2017-Oct-28 11:30N 44°06' E 009°51'0 0.0
2017-Oct-28 10:57N 44°06' E 009°51'0 0.0
2017-Oct-28 10:21N 44°06' E 009°51'0 0.0
2017-Oct-28 10:00N 44°06' E 009°51'0 0.0
2017-Oct-28 09:24N 44°06' E 009°51'0 0.0
2017-Oct-28 09:01N 44°06' E 009°51'0 0.0
2017-Oct-28 08:31N 44°06' E 009°51'0 0.0
2017-Oct-28 08:01N 44°06' E 009°51'0 0.0
2017-Oct-28 07:30N 44°06' E 009°51'0 0.6
2017-Oct-28 07:01N 44°06' E 009°51'3 5.6
2017-Oct-28 06:31N 44°03' E 009°52'4 8.9
2017-Oct-28 06:00N 43°60' E 009°56'2 4.4
2017-Oct-28 05:31N 43°58' E 009°55'0 0.6
2017-Oct-28 05:00N 43°58' E 009°55'0 0.1
2017-Oct-28 04:30N 43°58' E 009°55'0 0.1
2017-Oct-28 04:00N 43°58' E 009°55'0 0.0
2017-Oct-28 03:24N 43°58' E 009°55'0 0.0
2017-Oct-28 03:00N 43°58' E 009°55'0 0.1
2017-Oct-28 02:30N 43°58' E 009°55'0 0.0
2017-Oct-28 02:00N 43°58' E 009°55'0 0.1
2017-Oct-28 01:30N 43°58' E 009°55'0 0.0
2017-Oct-28 01:00N 43°58' E 009°55'0 0.0
2017-Oct-28 00:30N 43°58' E 009°55'0 0.0
2017-Oct-27 23:57N 43°58' E 009°55'0 0.1
2017-Oct-27 23:30N 43°58' E 009°55'0 0.1
2017-Oct-27 23:00N 43°58' E 009°55'0 0.0
2017-Oct-27 22:30N 43°58' E 009°55'0 0.0
2017-Oct-27 21:54N 43°58' E 009°55'0 0.0
2017-Oct-27 21:30N 43°58' E 009°55'0 0.2
2017-Oct-27 21:00N 43°58' E 009°55'0 0.1
2017-Oct-27 20:30N 43°58' E 009°55'0 0.1
2017-Oct-27 20:00N 43°58' E 009°55'0 0.0
2017-Oct-27 19:30N 43°58' E 009°55'0 0.1
2017-Oct-27 18:57N 43°58' E 009°55'0 0.1
2017-Oct-27 18:30N 43°58' E 009°55'0 0.0
2017-Oct-27 18:00N 43°58' E 009°55'0 0.0
2017-Oct-27 17:30N 43°58' E 009°55'0 0.0
2017-Oct-27 17:00N 43°58' E 009°55'0 0.0
2017-Oct-27 16:30N 43°58' E 009°55'0 0.0
2017-Oct-27 15:45N 43°58' E 009°55'0 0.1
2017-Oct-27 15:30N 43°58' E 009°55'0 0.2
2017-Oct-27 15:00N 43°58' E 009°55'3 5.6
2017-Oct-27 14:30N 43°57' E 009°51'510.1
2017-Oct-27 14:00N 43°55' E 009°45'510.0
2017-Oct-27 13:30N 43°52' E 009°39'510.1
2017-Oct-27 13:00N 43°49' E 009°34'510.1
2017-Oct-27 12:30N 43°46' E 009°28'510.0
2017-Oct-27 12:00N 43°44' E 009°22'5 9.9
2017-Oct-27 11:30N 43°42' E 009°16'510.1
2017-Oct-27 11:00N 43°39' E 009°10'510.2
2017-Oct-27 10:30N 43°36' E 009°04'510.4
2017-Oct-27 10:00N 43°34' E 008°58'610.5
2017-Oct-27 09:29N 43°31' E 008°51'610.7
2017-Oct-27 08:54N 43°28' E 008°44'410.5
2017-Oct-27 08:30N 43°25' E 008°39'510.5
2017-Oct-27 08:00N 43°23' E 008°33'6510.3
2017-Oct-27 01:43N 42°48' E 007°17'1410.4
2017-Oct-27 00:23N 42°41' E 007°01'17312.0
2017-Oct-26 09:57N 41°09' E 003°44'10616.3
2017-Oct-26 03:27N 40°14' E 001°45'1616.4
2017-Oct-26 02:27N 40°05' E 001°27'1016.2
2017-Oct-26 01:50N 39°59' E 001°16'  
Track history (hours):
 
Tides and Currents Weather Stations Pressure Air Temp Water Temp Dewpoint Dewpoint Depression Visibility Wind Speed Wind Dir Waves Ship Positions

MSC Amsterdam

Last reported at 2017-Nov-02 06:23 UTC. Time now 2017-Nov-20 12:12 UTC.
Position N 37°39' E 016°15'.
Warning: this ship's position is 18 days out of date.

Length 399 m; draft 12.6 m.

Type: Cargo ship. MMSI: 373598000.

Date/timePositionNaut miles runAvg speedWind from/ knotsBaromVisibWave heightAir tempDewpointWater temp
2017-Nov-02 06:23N 37°39' E 016°15'921.7
2017-Nov-02 06:00N 37°43' E 016°05'1021.3
2017-Nov-02 05:30N 37°47' E 015°53'1121.3
2017-Nov-02 05:00N 37°52' E 015°41'1219.7
2017-Nov-02 04:25N 38°02' E 015°34'718.3
2017-Nov-02 04:00N 38°10' E 015°34'914.9
2017-Nov-02 03:24N 38°17' E 015°41'718.0
2017-Nov-02 03:00N 38°23' E 015°46'713.1
2017-Nov-02 02:30N 38°27' E 015°52'1 0.0
2017-Oct-31 12:17N 38°27' E 015°54'0 0.0
2017-Oct-31 12:00N 38°27' E 015°54'0 0.0
2017-Oct-31 11:30N 38°27' E 015°54'1 1.0
2017-Oct-31 10:56N 38°27' E 015°54'3 3.1
2017-Oct-31 10:02N 38°28' E 015°51'2 3.0
2017-Oct-31 09:12N 38°29' E 015°48'3 9.3
2017-Oct-31 08:50N 38°30' E 015°44'615.7
2017-Oct-31 08:28N 38°31' E 015°37'716.0
2017-Oct-31 08:00N 38°30' E 015°27'2 4.5
2017-Oct-31 07:28N 38°30' E 015°24'0 0.4
2017-Oct-31 07:00N 38°30' E 015°24'0 0.2
2017-Oct-31 06:29N 38°30' E 015°24'0 0.3
2017-Oct-31 05:59N 38°30' E 015°24'0 0.4
2017-Oct-31 05:26N 38°30' E 015°24'0 0.2
2017-Oct-31 05:00N 38°30' E 015°24'0 0.4
2017-Oct-31 04:29N 38°30' E 015°24'0 0.7
2017-Oct-31 03:58N 38°30' E 015°25'0 0.6
2017-Oct-31 03:29N 38°30' E 015°25'1 1.1
2017-Oct-31 03:00N 38°29' E 015°26'1 1.3
2017-Oct-31 02:30N 38°29' E 015°27'1 0.1
2017-Oct-30 20:05N 38°30' E 015°27'0 0.3
2017-Oct-30 19:59N 38°30' E 015°27'0 0.2
2017-Oct-30 19:29N 38°30' E 015°27'0 0.4
2017-Oct-30 19:00N 38°30' E 015°27'0 0.5
2017-Oct-30 18:28N 38°30' E 015°27'0 0.6
2017-Oct-30 18:00N 38°31' E 015°27'0 0.6
2017-Oct-30 17:30N 38°31' E 015°27'0 0.8
2017-Oct-30 17:00N 38°31' E 015°27'0 0.7
2017-Oct-30 16:30N 38°32' E 015°27'0 0.8
2017-Oct-30 16:00N 38°32' E 015°26'0 0.8
2017-Oct-30 15:30N 38°32' E 015°27'0 0.9
2017-Oct-30 14:59N 38°33' E 015°27'0 1.0
2017-Oct-30 14:30N 38°33' E 015°26'1 1.1
2017-Oct-30 13:24N 38°35' E 015°26'1 2.2
2017-Oct-30 12:56N 38°36' E 015°26'3 6.0
2017-Oct-30 12:30N 38°38' E 015°25'5 9.5
2017-Oct-30 12:00N 38°43' E 015°23'5 9.4
2017-Oct-30 11:30N 38°47' E 015°21'5 9.0
2017-Oct-30 11:00N 38°51' E 015°19'2811.7
2017-Oct-30 08:34N 39°09' E 014°51'421.4
2017-Oct-30 08:21N 39°12' E 014°46'721.5
2017-Oct-30 08:00N 39°17' E 014°39'31421.2
2017-Oct-29 17:11N 42°54' E 009°38'421.0
2017-Oct-29 17:00N 42°58' E 009°37'1220.3
2017-Oct-29 16:24N 43°10' E 009°37'820.7
2017-Oct-29 16:00N 43°18' E 009°40'1020.6
2017-Oct-29 15:30N 43°28' E 009°42'1020.5
2017-Oct-29 15:00N 43°38' E 009°45'1020.1
2017-Oct-29 14:30N 43°48' E 009°48'917.5
2017-Oct-29 14:01N 43°57' E 009°51'612.5
2017-Oct-29 13:31N 44°03' E 009°52'4 7.0
2017-Oct-29 13:00N 44°06' E 009°51'0 0.0
2017-Oct-29 12:30N 44°06' E 009°51'0 0.0
2017-Oct-29 12:00N 44°06' E 009°51'0 0.0
2017-Oct-29 11:24N 44°06' E 009°51'0 0.0
2017-Oct-29 11:00N 44°06' E 009°51'0 0.0
2017-Oct-29 10:24N 44°06' E 009°51'0 0.0
2017-Oct-29 10:00N 44°06' E 009°51'0 0.0
2017-Oct-29 09:15N 44°06' E 009°51'0 0.0
2017-Oct-29 08:57N 44°06' E 009°51'0 0.0
2017-Oct-29 08:18N 44°06' E 009°51'0 0.0
2017-Oct-29 08:00N 44°06' E 009°51'0 0.0
2017-Oct-29 07:24N 44°06' E 009°51'0 0.0
2017-Oct-29 06:57N 44°06' E 009°51'0 0.0
2017-Oct-29 06:21N 44°06' E 009°51'0 0.0
2017-Oct-29 05:51N 44°06' E 009°51'0 0.0
2017-Oct-29 05:06N 44°06' E 009°51'0 0.1
2017-Oct-29 05:00N 44°06' E 009°51'0 0.0
2017-Oct-29 04:27N 44°06' E 009°51'0 0.0
2017-Oct-29 03:33N 44°06' E 009°51'0 0.0
2017-Oct-28 19:00N 44°06' E 009°51'0 0.0
2017-Oct-28 18:18N 44°06' E 009°51'0 0.0
2017-Oct-28 17:57N 44°06' E 009°51'0 0.0
2017-Oct-28 16:27N 44°06' E 009°51'0 0.0
2017-Oct-28 16:00N 44°06' E 009°51'0 0.0
2017-Oct-28 15:21N 44°06' E 009°51'0 0.0
2017-Oct-28 14:57N 44°06' E 009°51'0 0.0
2017-Oct-28 14:30N 44°06' E 009°51'0 0.0
2017-Oct-28 14:00N 44°06' E 009°51'0 0.0
2017-Oct-28 13:30N 44°06' E 009°51'0 0.0
2017-Oct-28 13:00N 44°06' E 009°51'0 0.0
2017-Oct-28 12:27N 44°06' E 009°51'0 0.0
2017-Oct-28 11:54N 44°06' E 009°51'0 0.0
2017-Oct-28 11:30N 44°06' E 009°51'0 0.0
2017-Oct-28 10:57N 44°06' E 009°51'0 0.0
2017-Oct-28 10:21N 44°06' E 009°51'0 0.0
2017-Oct-28 10:00N 44°06' E 009°51'0 0.0
2017-Oct-28 09:24N 44°06' E 009°51'0 0.0
2017-Oct-28 09:01N 44°06' E 009°51'0 0.0
2017-Oct-28 08:31N 44°06' E 009°51'0 0.0
2017-Oct-28 08:01N 44°06' E 009°51'0 0.0
2017-Oct-28 07:30N 44°06' E 009°51'0 0.6
2017-Oct-28 07:01N 44°06' E 009°51'3 5.6
2017-Oct-28 06:31N 44°03' E 009°52'4 8.9
2017-Oct-28 06:00N 43°60' E 009°56'2 4.4
2017-Oct-28 05:31N 43°58' E 009°55'0 0.6
2017-Oct-28 05:00N 43°58' E 009°55'0 0.1
2017-Oct-28 04:30N 43°58' E 009°55'0 0.1
2017-Oct-28 04:00N 43°58' E 009°55'0 0.0
2017-Oct-28 03:24N 43°58' E 009°55'0 0.0
2017-Oct-28 03:00N 43°58' E 009°55'0 0.1
2017-Oct-28 02:30N 43°58' E 009°55'0 0.0
2017-Oct-28 02:00N 43°58' E 009°55'0 0.1
2017-Oct-28 01:30N 43°58' E 009°55'0 0.0
2017-Oct-28 01:00N 43°58' E 009°55'0 0.0
2017-Oct-28 00:30N 43°58' E 009°55'0 0.0
2017-Oct-27 23:57N 43°58' E 009°55'0 0.1
2017-Oct-27 23:30N 43°58' E 009°55'0 0.1
2017-Oct-27 23:00N 43°58' E 009°55'0 0.0
2017-Oct-27 22:30N 43°58' E 009°55'0 0.0
2017-Oct-27 21:54N 43°58' E 009°55'0 0.0
2017-Oct-27 21:30N 43°58' E 009°55'0 0.2
2017-Oct-27 21:00N 43°58' E 009°55'0 0.1
2017-Oct-27 20:30N 43°58' E 009°55'0 0.1
2017-Oct-27 20:00N 43°58' E 009°55'0 0.0
2017-Oct-27 19:30N 43°58' E 009°55'0 0.1
2017-Oct-27 18:57N 43°58' E 009°55'0 0.1
2017-Oct-27 18:30N 43°58' E 009°55'0 0.0
2017-Oct-27 18:00N 43°58' E 009°55'0 0.0
2017-Oct-27 17:30N 43°58' E 009°55'0 0.0
2017-Oct-27 17:00N 43°58' E 009°55'0 0.0
2017-Oct-27 16:30N 43°58' E 009°55'0 0.0
2017-Oct-27 15:45N 43°58' E 009°55'0 0.1
2017-Oct-27 15:30N 43°58' E 009°55'0 0.2
2017-Oct-27 15:00N 43°58' E 009°55'3 5.6
2017-Oct-27 14:30N 43°57' E 009°51'510.1
2017-Oct-27 14:00N 43°55' E 009°45'510.0
2017-Oct-27 13:30N 43°52' E 009°39'510.1
2017-Oct-27 13:00N 43°49' E 009°34'510.1
2017-Oct-27 12:30N 43°46' E 009°28'510.0
2017-Oct-27 12:00N 43°44' E 009°22'5 9.9
2017-Oct-27 11:30N 43°42' E 009°16'510.1
2017-Oct-27 11:00N 43°39' E 009°10'510.2
2017-Oct-27 10:30N 43°36' E 009°04'510.4
2017-Oct-27 10:00N 43°34' E 008°58'610.5
2017-Oct-27 09:29N 43°31' E 008°51'610.7
2017-Oct-27 08:54N 43°28' E 008°44'410.5
2017-Oct-27 08:30N 43°25' E 008°39'510.5
2017-Oct-27 08:00N 43°23' E 008°33'6510.3
2017-Oct-27 01:43N 42°48' E 007°17'1410.4
2017-Oct-27 00:23N 42°41' E 007°01'17312.0
2017-Oct-26 09:57N 41°09' E 003°44'10616.3
2017-Oct-26 03:27N 40°14' E 001°45'1616.4
2017-Oct-26 02:27N 40°05' E 001°27'1016.2
2017-Oct-26 01:50N 39°59' E 001°16'  

Dump ship's entire track history